Brugge, Belgium
Current Conditions -  °F | °C
As of 5:20 PM on Monday 26 Jan 2015 (Local Time) from EBOS Reporting Station
Scattered Clouds Scattered Clouds  
Wind Chill: 37°   Ceiling: Unl
Heat Index: 45°   Visibility: 6mi
Dew Point: 37°   Wind: 16mph
Humidity: 76%   Direction: 320°NW
Pressure: 30.18"   Gusts: NA
Location:  51.21°N, 3.22°E
Report Text: EBOS 261620Z 32014KT 9999 FEW022 SCT045 07/03 Q1022 NOSIG
Loading
Personal Weather Stations






























Interactive Weather Map New forecast layout! Learn more

10-Day Weather Forecast

Advertisements
Track Severe Weather on mobile